createdAt,value
2024-01-08T00:06:59.030Z,101708.51
2024-01-08T00:22:01.567Z,101712.60
2024-01-08T00:37:04.309Z,101710.96
2024-01-08T00:52:07.137Z,101722.38
2024-01-08T01:07:10.671Z,101741.13
2024-01-08T01:22:13.312Z,101747.54
2024-01-08T01:37:15.773Z,101773.67
2024-01-08T01:52:19.048Z,101780.59
2024-01-08T02:21:40.340Z,101793.62
2024-01-08T02:36:42.788Z,101811.27
2024-01-08T02:51:45.076Z,101820.17
2024-01-08T03:06:47.557Z,101820.91
2024-01-08T03:21:49.891Z,101829.08
2024-01-08T03:36:52.325Z,101843.48
2024-01-08T03:51:54.646Z,101856.34
2024-01-08T04:06:56.938Z,101869.64
2024-01-08T04:21:59.540Z,101882.11
2024-01-08T04:37:02.047Z,101898.85
2024-01-08T04:52:04.931Z,101907.59
2024-01-08T05:07:08.844Z,101912.08
2024-01-08T05:22:11.286Z,101926.41
2024-01-08T05:37:13.783Z,101943.35
2024-01-08T05:52:16.358Z,101953.48
2024-01-08T06:07:18.765Z,101965.93
2024-01-08T06:22:21.120Z,101972.40
2024-01-08T06:37:23.714Z,101990.48
2024-01-08T06:52:30.868Z,102016.85
2024-01-08T07:07:38.937Z,102043.80
2024-01-08T07:22:42.142Z,102056.20
2024-01-08T07:37:45.290Z,102072.92
2024-01-08T07:52:50.224Z,102083.89
2024-01-08T08:07:53.067Z,102115.21
2024-01-08T08:22:56.132Z,102133.16
2024-01-08T08:37:59.125Z,102142.28
2024-01-08T08:53:03.099Z,102172.92
2024-01-08T09:08:06.338Z,102214.80
2024-01-08T09:23:09.571Z,102232.04
2024-01-08T09:38:18.380Z,102240.96
2024-01-08T09:53:37.231Z,102235.34
2024-01-08T10:21:34.858Z,102251.52
2024-01-08T10:36:43.123Z,102253.74
2024-01-08T10:51:50.402Z,102251.03
2024-01-08T11:06:56.591Z,102246.71
2024-01-08T11:22:12.443Z,102249.67
2024-01-08T11:46:52.604Z,102257.70
2024-01-08T12:01:55.898Z,102268.83
2024-01-08T12:17:02.642Z,102280.73
2024-01-08T12:41:29.455Z,102286.23
2024-01-08T12:56:37.751Z,102295.61
2024-01-08T13:11:44.537Z,102313.13
2024-01-08T13:26:51.634Z,102329.84
2024-01-08T13:41:57.893Z,102350.43
2024-01-08T13:57:00.670Z,102368.95
2024-01-08T14:12:04.049Z,102389.88
2024-01-08T14:27:44.234Z,102403.23
2024-01-08T14:42:47.315Z,102421.05
2024-01-08T14:57:49.863Z,102419.73
2024-01-08T15:12:52.864Z,102421.98
2024-01-08T15:27:55.436Z,102428.19
2024-01-08T15:42:58.199Z,102439.44
2024-01-08T15:58:04.740Z,102444.77
2024-01-08T16:13:07.304Z,102444.92
2024-01-08T16:28:10.673Z,102470.33
2024-01-08T16:43:18.204Z,102493.36
2024-01-08T16:58:29.345Z,102504.96
2024-01-08T17:13:33.704Z,102516.13
2024-01-08T17:28:36.174Z,102529.52
2024-01-08T17:43:38.779Z,102534.41
2024-01-08T17:58:41.471Z,102549.52
2024-01-08T18:13:46.620Z,102561.54
2024-01-08T18:28:49.426Z,102583.67
2024-01-08T18:43:51.969Z,102600.60
2024-01-08T18:58:56.332Z,102621.31
2024-01-08T19:13:58.927Z,102645.16
2024-01-08T19:29:01.657Z,102666.27
2024-01-08T19:44:04.541Z,102664.37
2024-01-08T19:59:07.311Z,102672.47
2024-01-08T20:14:10.150Z,102681.65
2024-01-08T20:29:13.155Z,102688.98
2024-01-08T20:44:17.274Z,102695.68
2024-01-08T20:59:45.294Z,102711.05
2024-01-08T21:14:48.580Z,102721.29
2024-01-08T21:29:51.183Z,102715.19
2024-01-08T21:44:53.693Z,102727.73
2024-01-08T21:59:57.200Z,102734.18
2024-01-08T22:14:59.843Z,102739.29
2024-01-08T22:30:02.553Z,102741.56
2024-01-08T22:51:12.531Z,102742.41
2024-01-08T23:06:15.474Z,102755.48
2024-01-08T23:21:17.978Z,102744.54
2024-01-08T23:36:20.820Z,102744.83
2024-01-08T23:51:23.647Z,102744.77
